Oliva, Spain
Current Conditions -  °F | °C
As of 7:30 PM on Tuesday 27 Jan 2015 (Local Time) from LEVC Reporting Station
Clear Clear  
Wind Chill: 61°   Ceiling: Unl
Heat Index: 61°   Visibility: 6mi
Dew Point: 32°   Wind: 10mph
Humidity: 34%   Direction: 300°WNW
Pressure: 30.12"   Gusts: NA
Location:  38.92°N, 0.12°W
Report Text: LEVC 271830Z 30009KT CAVOK 16/00 Q1020 NOSIG
Loading
Personal Weather Stations






























Interactive Weather Map New forecast layout! Learn more

10-Day Weather Forecast

Advertisements
Track Severe Weather on mobile